Flight Track Log - Related Links

Times and Time Zones

All times are in EDT time to prevent confusion due to time zone crossing. See the SWA962 flight status page for this flight to view local times or setup timezone preferences in your user account.

Time Position Orientation Groundspeed Altitude Reporting Facility
EDT Latitude Longitude Course Direction KTS MPH feet Rate Location/Type
Fri 08:03:08 PM 34.9647 -82.1303 57° Northeast 193 222 5,600  Level Atlanta Center
Fri 08:04:08 PM 35.0375 -82.1083 14° North 224 258 8,400 2,450 Climbing Atlanta Center
Fri 08:05:08 PM 35.1186 -82.0861 13° North 261 300 10,500 3,033 Climbing Atlanta Center
Fri 08:07:00 PM 35.2903 -81.9333 North  Level FlightAware Approximate
Fri 08:07:08 PM 35.3075 -82.0256 15° North 345 397 17,500  Level Atlanta Center
Fri 08:08:08 PM 35.4047 -81.9825 20° North 364 419 20,100 2,700 Climbing Atlanta Center
Fri 08:09:08 PM 35.4464 -81.8592 67° East 335 386 22,900 2,600 Climbing Atlanta Center
Fri 08:10:08 PM 35.4900 -81.7356 67° East 380 437 25,300 2,050 Climbing Atlanta Center
Fri 08:11:08 PM 35.5275 -81.6197 68° East 396 456 27,000 1,800 Climbing Atlanta Center
Fri 08:12:08 PM 35.5728 -81.4831 68° East 419 482 28,900 1,650 Climbing Atlanta Center
Fri 08:13:08 PM 35.6217 -81.3308 68° East 424 488 30,300 1,700 Climbing Atlanta Center
Fri 08:14:08 PM 35.6725 -81.1883 66° East 455 524 32,300 1,350 Climbing Atlanta Center
Fri 08:15:08 PM 35.7461 -81.0350 59° Northeast 473 544 33,000 350 Climbing Atlanta Center
Fri 08:16:08 PM 35.8094 -80.8917 61° Northeast 466 536 33,000  Level Atlanta Center
Fri 08:17:08 PM 35.8683 -80.7536 62° Northeast 466 536 33,000  Level Atlanta Center
Fri 08:19:05 PM 35.9872 -80.4847 61° Northeast 470 541 33,000  Level Washington Center
Fri 08:20:05 PM 36.0472 -80.3394 63° Northeast 464 534 33,000  Level Washington Center
Fri 08:21:06 PM 36.1089 -80.2019 61° Northeast 458 527 33,000  Level Washington Center
Fri 08:22:06 PM 36.1636 -80.0817 61° Northeast 458 527 33,000  Level Washington Center
Fri 08:23:07 PM 36.2231 -79.9433 62° Northeast 451 519 33,000  Level Washington Center
Fri 08:24:04 PM 36.2842 -79.8050 61° Northeast 446 513 33,000  Level Washington Center
Fri 08:25:04 PM 36.3483 -79.6458 63° Northeast 457 526 33,000  Level Washington Center
Fri 08:26:05 PM 36.4092 -79.5072 61° Northeast 457 526 33,000  Level Washington Center
Fri 08:27:06 PM 36.4658 -79.3681 63° Northeast 457 526 33,000  Level Washington Center
Fri 08:28:06 PM 36.5267 -79.2261 62° Northeast 457 526 33,000  Level Washington Center
Fri 08:29:06 PM 36.5889 -79.0919 60° Northeast 457 526 33,000 -454 Level Washington Center
Fri 08:30:05 PM 36.6472 -78.9522 62° Northeast 452 520 32,100 -1,800 Descending Washington Center
Fri 08:31:06 PM 36.6989 -78.8172 64° Northeast 452 520 29,400 -1,563 Descending Washington Center
Fri 08:32:04 PM 36.7650 -78.6850 58° Northeast 452 520 29,000 -504 Descending Washington Center
Fri 08:33:05 PM 36.8414 -78.5481 55° Northeast 452 520 28,400 -992 Descending Washington Center
Fri 08:34:05 PM 36.9111 -78.4258 54° Northeast 440 506 27,000 -689 Descending Washington Center
Fri 08:35:07 PM 36.9969 -78.3225 44° Northeast 432 497 27,000  Level Washington Center
Fri 08:36:04 PM 37.0925 -78.2478 32° Northeast 428 493 27,000  Level Washington Center
Fri 08:37:04 PM 37.2011 -78.1550 34° Northeast 433 498 27,000 -49 Level Washington Center
Fri 08:38:06 PM 37.3028 -78.0722 33° Northeast 428 493 26,900 -600 Descending Washington Center
Fri 08:39:04 PM 37.4047 -77.9842 34° Northeast 428 493 25,800 -1,059 Descending Washington Center
Fri 08:40:05 PM 37.5003 -77.8981 36° Northeast 428 493 24,800 -984 Descending Washington Center
Fri 08:41:06 PM 37.6000 -77.8172 33° Northeast 428 493 23,800 -893 Descending Washington Center
Fri 08:42:06 PM 37.6975 -77.7333 34° Northeast 428 493 23,000 -407 Descending Washington Center
Fri 08:43:04 PM 37.7928 -77.6494 35° Northeast 428 493 23,000  Level Washington Center
Fri 08:44:05 PM 37.8878 -77.5706 33° Northeast 428 493 23,000  Level Washington Center
Fri 08:45:06 PM 37.9831 -77.4861 35° Northeast 423 487 23,000 -403 Level Washington Center
Fri 08:46:04 PM 38.0675 -77.4169 33° Northeast 417 480 22,200 -958 Descending Washington Center
Fri 08:47:05 PM 38.1711 -77.3217 36° Northeast 417 480 21,100 -1,884 Descending Washington Center
Fri 08:48:05 PM 38.2514 -77.2547 33° Northeast 400 460 18,400 -2,400 Descending Washington Center
Fri 08:49:05 PM 38.3378 -77.1800 34° Northeast 388 447 16,300 -1,934 Descending Washington Center
Fri 08:50:06 PM 38.4267 -77.0892 39° Northeast 378 435 14,500 -1,983 Descending Washington Center
Fri 08:51:06 PM 38.4944 -77.0028 45° Northeast 355 409 12,300 -1,678 Descending Washington Center
Fri 08:52:04 PM 38.5642 -76.9192 43° Northeast 342 394 11,200 -1,059 Descending Washington Center
Fri 08:53:05 PM 38.6297 -76.8381 44° Northeast 331 381 10,200 -984 Descending Washington Center
Fri 08:54:06 PM 38.6908 -76.7619 44° Northeast 315 362 9,200 -942 Descending Washington Center
Fri 08:55:06 PM 38.7333 -76.6800 56° Northeast 295 339 8,300 -1,102 Descending Washington Center
Fri 08:55:44 PM 38.7667 -76.6167 56° Northeast 276 318 7,400 -1,408 Descending Potomac TRACON
Fri 08:56:44 PM 38.8000 -76.5333 63° Northeast 281 323 6,000 -900 Descending Potomac TRACON
Fri 08:57:44 PM 38.8833 -76.5500 351° North 270 311 5,600 -684 Descending Potomac TRACON
Fri 08:58:38 PM 38.9333 -76.5833 333° Northwest 272 313 4,700 -842 Descending Potomac TRACON
Fri 08:59:38 PM 39.0000 -76.6500 322° Northwest 275 316 4,000 -333 Descending Potomac TRACON
Fri 09:00:44 PM 39.0333 -76.7333 297° West 273 314 4,000 -397 Level Potomac TRACON
Fri 09:01:39 PM 39.0833 -76.8000 314° West 274 315 3,200 -730 Descending Potomac TRACON
Fri 09:02:39 PM 39.1333 -76.8333 333° Northwest 251 289 2,600 -650 Descending Potomac TRACON
Fri 09:03:39 PM 39.1833 -76.8000 27° Northeast 207 238 1,900 -737 Descending Potomac TRACON
Fri 09:04:33 PM 39.1833 -76.7500 90° East 142 163 1,200 -700 Descending Potomac TRACON
Fri 09:05:39 PM 39.1833 -76.7000 90° East 128 147 500 -636 Descending Potomac TRACON
Fri 09:07:00 PM 39.1667 -76.6667 339° North  Level FlightAware Approximate
Fri 09:14:00 PM 39.1754 -76.6683 339° North  Level Estimated
Fri 09:15:00 PM 39.1754 -76.6683 339° North  Level Estimated
Fri 09:16:00 PM 39.1754 -76.6683 339° North  Level Estimated

Login

Don't have an account? Register now (free) for customized features, flight alerts, and more!